createdAt,value
2022-12-03T00:00:42.115Z,101368.60
2022-12-03T00:03:27.474Z,101366.60
2022-12-03T00:06:03.414Z,101361.60
2022-12-03T00:08:37.279Z,101363.60
2022-12-03T00:11:11.699Z,101362.80
2022-12-03T00:13:46.865Z,101359.60
2022-12-03T00:16:20.737Z,101367.20
2022-12-03T00:18:54.589Z,101365.00
2022-12-03T00:21:28.595Z,101359.00
2022-12-03T00:24:02.413Z,101360.60
2022-12-03T00:26:36.416Z,101358.60
2022-12-03T00:29:11.444Z,101361.00
2022-12-03T00:31:46.318Z,101364.40
2022-12-03T00:34:20.451Z,101363.20
2022-12-03T00:36:54.536Z,101355.80
2022-12-03T00:39:28.614Z,101358.40
2022-12-03T00:42:02.552Z,101356.20
2022-12-03T00:44:36.328Z,101358.80
2022-12-03T00:47:10.850Z,101356.40
2022-12-03T00:49:44.735Z,101359.00
2022-12-03T00:52:19.435Z,101367.80
2022-12-03T00:54:53.542Z,101362.60
2022-12-03T00:57:27.533Z,101360.80
2022-12-03T01:00:01.528Z,101356.00
2022-12-03T01:02:35.243Z,101356.80
2022-12-03T01:05:11.118Z,101353.40
2022-12-03T01:07:45.054Z,101349.00
2022-12-03T01:10:19.390Z,101356.20
2022-12-03T01:12:53.296Z,101353.20
2022-12-03T01:15:27.248Z,101348.80
2022-12-03T01:18:01.234Z,101339.20
2022-12-03T01:20:36.554Z,101345.40
2022-12-03T01:23:10.506Z,101338.60
2022-12-03T01:25:44.391Z,101342.40
2022-12-03T01:28:18.339Z,101343.00
2022-12-03T01:31:06.099Z,101344.80
2022-12-03T01:33:40.189Z,101345.40
2022-12-03T01:36:14.328Z,101348.40
2022-12-03T01:38:49.166Z,101347.60
2022-12-03T01:41:25.011Z,101343.00
2022-12-03T01:44:01.314Z,101340.60
2022-12-03T01:46:42.381Z,101338.00
2022-12-03T01:49:22.677Z,101336.60
2022-12-03T01:51:58.364Z,101340.20
2022-12-03T01:54:40.244Z,101338.00
2022-12-03T01:57:25.940Z,101335.20
2022-12-03T02:00:01.540Z,101331.40
2022-12-03T02:02:39.319Z,101329.40
2022-12-03T02:05:22.866Z,101328.80
2022-12-03T02:07:57.677Z,101330.60
2022-12-03T02:10:37.249Z,101332.20
2022-12-03T02:13:12.870Z,101337.00
2022-12-03T02:15:47.068Z,101338.40
2022-12-03T02:18:21.326Z,101328.00
2022-12-03T02:21:07.394Z,101331.20
2022-12-03T02:23:56.846Z,101325.80
2022-12-03T02:26:31.187Z,101328.20
2022-12-03T02:29:05.421Z,101329.80
2022-12-03T02:31:39.414Z,101327.20
2022-12-03T02:34:28.564Z,101322.40
2022-12-03T02:37:02.981Z,101325.40
2022-12-03T02:39:42.081Z,101323.80
2022-12-03T02:42:34.470Z,101327.60
2022-12-03T02:45:15.028Z,101319.60
2022-12-03T02:47:52.637Z,101324.40
2022-12-03T02:50:31.693Z,101316.00
2022-12-03T02:53:10.641Z,101318.00
2022-12-03T02:55:46.145Z,101319.00
2022-12-03T02:58:20.917Z,101317.00
2022-12-03T03:01:40.757Z,101316.80
2022-12-03T03:04:20.527Z,101320.60
2022-12-03T03:06:54.898Z,101314.00
2022-12-03T03:09:30.128Z,101311.40
2022-12-03T03:12:03.948Z,101316.40
2022-12-03T03:14:38.488Z,101320.80
2022-12-03T03:17:12.998Z,101311.40
2022-12-03T03:19:48.236Z,101317.00
2022-12-03T03:22:22.462Z,101315.20
2022-12-03T03:24:56.391Z,101314.60
2022-12-03T03:27:31.465Z,101312.60
2022-12-03T03:30:07.520Z,101313.00
2022-12-03T03:32:45.355Z,101311.40
2022-12-03T03:35:19.635Z,101307.60
2022-12-03T03:37:54.610Z,101302.20
2022-12-03T03:40:30.518Z,101302.40
2022-12-03T03:43:04.854Z,101300.80
2022-12-03T03:45:38.927Z,101304.20
2022-12-03T03:48:15.214Z,101300.00
2022-12-03T03:50:50.448Z,101291.00
2022-12-03T03:53:25.908Z,101293.60
2022-12-03T03:55:59.794Z,101292.40
2022-12-03T03:58:33.719Z,101294.00
2022-12-03T04:01:07.972Z,101290.00
2022-12-03T04:03:42.432Z,101291.00
2022-12-03T04:06:16.832Z,101285.00
2022-12-03T04:08:51.519Z,101288.40
2022-12-03T04:11:43.367Z,101290.00
2022-12-03T04:14:17.376Z,101277.00
2022-12-03T04:16:51.588Z,101282.60
2022-12-03T04:19:25.546Z,101272.80
2022-12-03T04:22:22.273Z,101274.20
2022-12-03T04:25:16.459Z,101273.00
2022-12-03T04:28:08.039Z,101279.00
2022-12-03T04:30:42.186Z,101275.80
2022-12-03T04:33:33.874Z,101277.80
2022-12-03T04:36:08.995Z,101274.40
2022-12-03T04:38:42.819Z,101264.40
2022-12-03T04:41:16.946Z,101271.80
2022-12-03T04:44:04.617Z,101277.80
2022-12-03T04:46:38.446Z,101272.00
2022-12-03T04:49:12.656Z,101276.60
2022-12-03T04:51:46.808Z,101275.20
2022-12-03T04:54:20.581Z,101277.40
2022-12-03T04:56:54.236Z,101281.80
2022-12-03T04:59:28.606Z,101273.20
2022-12-03T05:02:02.808Z,101269.20
2022-12-03T05:04:37.161Z,101276.60
2022-12-03T05:07:10.992Z,101268.60
2022-12-03T05:09:44.715Z,101274.40
2022-12-03T05:12:18.531Z,101274.20
2022-12-03T05:14:52.510Z,101275.60
2022-12-03T05:17:26.927Z,101268.60
2022-12-03T05:20:18.647Z,101268.60
2022-12-03T05:22:52.321Z,101267.20
2022-12-03T05:25:26.138Z,101269.40
2022-12-03T05:27:59.791Z,101264.60
2022-12-03T05:30:34.075Z,101264.80
2022-12-03T05:33:08.040Z,101267.40
2022-12-03T05:35:41.995Z,101270.60
2022-12-03T05:38:16.193Z,101271.00
2022-12-03T05:40:50.180Z,101275.80
2022-12-03T05:43:24.235Z,101264.00
2022-12-03T05:45:58.157Z,101268.00
2022-12-03T05:48:32.241Z,101264.60
2022-12-03T05:51:05.965Z,101265.60
2022-12-03T05:53:40.170Z,101267.40
2022-12-03T05:56:13.971Z,101267.60
2022-12-03T05:58:47.802Z,101267.80
2022-12-03T06:01:21.940Z,101271.80
2022-12-03T06:03:55.890Z,101275.40
2022-12-03T06:06:29.683Z,101271.40
2022-12-03T06:09:03.448Z,101274.00
2022-12-03T06:11:37.518Z,101279.00
2022-12-03T06:14:11.858Z,101274.20
2022-12-03T06:16:46.051Z,101276.60
2022-12-03T06:19:20.230Z,101272.40
2022-12-03T06:21:54.512Z,101276.00
2022-12-03T06:24:28.641Z,101278.60
2022-12-03T06:27:02.591Z,101275.40
2022-12-03T06:29:36.826Z,101281.60
2022-12-03T06:32:11.034Z,101273.80
2022-12-03T06:34:45.066Z,101273.60
2022-12-03T06:37:19.229Z,101271.40
2022-12-03T06:39:53.480Z,101274.00
2022-12-03T06:42:27.458Z,101277.00
2022-12-03T06:45:01.342Z,101278.60
2022-12-03T06:47:37.109Z,101274.20
2022-12-03T06:50:14.851Z,101269.60
2022-12-03T06:52:48.651Z,101272.20
2022-12-03T06:55:22.404Z,101281.00
2022-12-03T06:57:56.421Z,101275.00
2022-12-03T07:00:30.225Z,101272.60
2022-12-03T07:03:04.107Z,101270.40
2022-12-03T07:05:39.598Z,101270.80
2022-12-03T07:08:13.531Z,101273.00
2022-12-03T07:10:47.542Z,101270.60
2022-12-03T07:13:21.265Z,101270.00
2022-12-03T07:15:55.174Z,101264.40
2022-12-03T07:18:29.317Z,101267.40
2022-12-03T07:21:03.406Z,101258.40
2022-12-03T07:23:37.896Z,101258.40
2022-12-03T07:26:11.816Z,101257.00
2022-12-03T07:28:47.057Z,101257.60
2022-12-03T07:31:20.940Z,101248.20
2022-12-03T07:33:54.984Z,101250.00
2022-12-03T07:44:20.435Z,101257.80
2022-12-03T07:46:54.463Z,101258.80
2022-12-03T07:49:28.557Z,101256.80
2022-12-03T07:52:02.527Z,101256.80
2022-12-03T07:54:36.477Z,101254.40
2022-12-03T07:57:10.389Z,101254.00
2022-12-03T07:59:44.142Z,101254.20
2022-12-03T08:02:21.143Z,101255.40
2022-12-03T08:04:56.601Z,101257.20
2022-12-03T08:07:30.609Z,101255.20
2022-12-03T08:10:05.165Z,101252.00
2022-12-03T08:12:42.134Z,101246.20
2022-12-03T08:15:20.961Z,101247.80
2022-12-03T08:17:59.915Z,101242.40
2022-12-03T08:20:43.068Z,101241.40
2022-12-03T08:23:20.883Z,101240.60
2022-12-03T08:25:55.454Z,101243.20
2022-12-03T08:28:30.664Z,101243.60
2022-12-03T08:31:19.627Z,101237.40
2022-12-03T08:33:56.733Z,101234.00
2022-12-03T08:36:46.434Z,101235.40
2022-12-03T08:39:34.876Z,101228.80
2022-12-03T08:42:38.253Z,101225.20
2022-12-03T08:45:42.726Z,101224.80
2022-12-03T08:48:54.054Z,101214.20
2022-12-03T08:51:46.471Z,101208.80
2022-12-03T08:54:23.113Z,101212.80
2022-12-03T08:57:48.554Z,101212.80
2022-12-03T09:00:42.922Z,101215.20
2022-12-03T09:03:24.524Z,101218.20
2022-12-03T09:05:58.594Z,101217.40
2022-12-03T09:08:33.013Z,101213.80
2022-12-03T09:11:07.284Z,101207.80
2022-12-03T09:13:41.379Z,101216.00
2022-12-03T09:16:14.957Z,101214.80
2022-12-03T09:18:48.634Z,101207.80
2022-12-03T09:21:22.354Z,101206.60
2022-12-03T09:23:56.247Z,101196.60
2022-12-03T09:26:30.186Z,101200.00
2022-12-03T09:29:07.624Z,101198.60
2022-12-03T09:31:45.532Z,101198.60
2022-12-03T09:34:19.435Z,101195.20
2022-12-03T09:36:53.150Z,101196.40
2022-12-03T09:39:27.060Z,101189.00
2022-12-03T09:42:01.133Z,101185.80
2022-12-03T09:44:38.142Z,101190.60
2022-12-03T09:47:12.182Z,101188.00
2022-12-03T09:49:47.596Z,101186.40
2022-12-03T09:52:28.016Z,101188.60
2022-12-03T09:55:04.847Z,101182.60
2022-12-03T09:57:38.582Z,101190.00
2022-12-03T10:00:23.495Z,101189.80
2022-12-03T10:03:02.782Z,101179.40
2022-12-03T10:05:37.338Z,101187.60
2022-12-03T10:08:14.415Z,101190.40
2022-12-03T10:10:50.268Z,101191.40
2022-12-03T10:13:30.902Z,101193.40
2022-12-03T10:16:05.811Z,101194.60
2022-12-03T10:18:42.011Z,101194.60
2022-12-03T10:21:25.053Z,101197.60
2022-12-03T10:24:26.844Z,101200.20
2022-12-03T10:27:03.321Z,101190.80
2022-12-03T10:29:38.852Z,101192.00
2022-12-03T10:32:45.273Z,101192.40
2022-12-03T10:35:24.269Z,101188.00
2022-12-03T10:38:04.372Z,101180.60
2022-12-03T10:40:40.424Z,101175.00
2022-12-03T10:43:26.686Z,101180.40
2022-12-03T10:46:18.480Z,101172.00
2022-12-03T10:49:15.503Z,101170.40
2022-12-03T10:51:50.482Z,101170.60
2022-12-03T10:54:28.755Z,101169.20
2022-12-03T10:57:04.922Z,101162.00
2022-12-03T10:59:41.238Z,101152.40
2022-12-03T11:02:25.185Z,101147.60
2022-12-03T11:05:05.237Z,101144.60
2022-12-03T11:07:44.314Z,101138.80
2022-12-03T11:10:22.932Z,101143.00
2022-12-03T11:13:49.977Z,101139.20
2022-12-03T11:17:09.983Z,101136.80
2022-12-03T11:19:54.655Z,101139.00
2022-12-03T11:22:58.529Z,101136.20
2022-12-03T11:25:52.745Z,101130.40
2022-12-03T11:28:56.235Z,101130.60
2022-12-03T11:31:45.806Z,101126.60
2022-12-03T11:34:52.362Z,101122.40
2022-12-03T11:37:33.628Z,101116.20
2022-12-03T11:40:36.168Z,101115.40
2022-12-03T11:43:14.390Z,101110.00
2022-12-03T11:45:48.653Z,101113.40
2022-12-03T11:48:22.819Z,101108.40
2022-12-03T11:50:57.615Z,101116.60
2022-12-03T11:53:34.060Z,101116.80
2022-12-03T11:56:44.489Z,101109.80
2022-12-03T11:59:36.919Z,101103.40
2022-12-03T12:02:38.220Z,101094.60
2022-12-03T12:05:34.657Z,101090.00
2022-12-03T12:08:19.459Z,101087.60
2022-12-03T12:10:53.966Z,101096.00
2022-12-03T12:13:58.291Z,101095.60
2022-12-03T12:16:53.505Z,101090.20
2022-12-03T12:20:19.042Z,101091.80
2022-12-03T12:26:12.083Z,101098.00
2022-12-03T12:29:20.379Z,101098.40
2022-12-03T12:31:58.807Z,101095.20
2022-12-03T12:34:34.243Z,101094.60
2022-12-03T12:37:18.306Z,101092.20
2022-12-03T12:39:57.502Z,101082.80
2022-12-03T12:42:44.205Z,101077.20
2022-12-03T12:45:26.066Z,101070.40
2022-12-03T12:48:18.343Z,101071.60
2022-12-03T12:50:58.689Z,101072.20
2022-12-03T12:53:36.272Z,101070.40
2022-12-03T12:56:26.369Z,101074.20
2022-12-03T12:59:13.794Z,101081.20
2022-12-03T13:01:50.598Z,101076.40
2022-12-03T13:04:28.856Z,101081.60
2022-12-03T13:07:28.799Z,101089.00
2022-12-03T13:10:28.819Z,101087.60
2022-12-03T13:13:24.266Z,101091.80
2022-12-03T13:16:33.909Z,101095.20
2022-12-03T13:20:07.911Z,101084.20
2022-12-03T13:22:46.581Z,101088.20
2022-12-03T13:25:59.272Z,101091.80
2022-12-03T13:28:36.224Z,101090.60
2022-12-03T13:31:27.830Z,101081.80
2022-12-03T13:34:18.048Z,101088.80
2022-12-03T13:36:58.036Z,101079.00
2022-12-03T13:39:37.835Z,101078.00
2022-12-03T13:42:42.415Z,101087.60
2022-12-03T13:45:36.963Z,101096.00
2022-12-03T13:48:51.571Z,101090.60
2022-12-03T13:51:31.933Z,101082.00
2022-12-03T13:54:06.777Z,101088.00
2022-12-03T13:56:42.790Z,101087.80
2022-12-03T13:59:20.352Z,101084.80
2022-12-03T14:01:57.862Z,101087.60
2022-12-03T14:05:01.004Z,101087.20
2022-12-03T14:07:35.553Z,101083.60
2022-12-03T14:10:14.930Z,101087.60
2022-12-03T14:12:53.977Z,101086.80
2022-12-03T14:15:32.728Z,101086.20
2022-12-03T14:18:13.683Z,101074.60
2022-12-03T14:21:09.664Z,101078.60
2022-12-03T14:23:43.567Z,101080.00
2022-12-03T14:26:23.061Z,101089.60
2022-12-03T14:28:59.075Z,101087.80
2022-12-03T14:31:33.330Z,101085.40
2022-12-03T14:34:16.970Z,101085.00
2022-12-03T14:36:50.714Z,101081.60
2022-12-03T14:39:50.887Z,101085.00
2022-12-03T14:42:57.279Z,101080.80
2022-12-03T14:45:42.917Z,101080.80
2022-12-03T14:48:17.256Z,101081.20
2022-12-03T14:50:52.491Z,101086.60
2022-12-03T14:53:42.794Z,101087.60
2022-12-03T14:56:18.241Z,101086.40
2022-12-03T14:58:55.198Z,101086.60
2022-12-03T15:01:29.286Z,101084.80
2022-12-03T15:04:03.496Z,101081.80
2022-12-03T15:06:37.547Z,101080.80
2022-12-03T15:09:12.184Z,101080.00
2022-12-03T15:11:46.768Z,101087.20
2022-12-03T15:14:55.022Z,101089.00
2022-12-03T15:18:38.671Z,101091.20
2022-12-03T15:21:35.107Z,101098.20
2022-12-03T15:24:11.541Z,101094.40
2022-12-03T15:26:45.561Z,101104.20
2022-12-03T15:29:26.145Z,101101.40
2022-12-03T15:32:01.274Z,101105.40
2022-12-03T15:34:56.345Z,101097.00
2022-12-03T15:37:33.447Z,101097.40
2022-12-03T15:40:10.103Z,101094.00
2022-12-03T15:42:44.500Z,101095.00
2022-12-03T15:45:19.609Z,101088.80
2022-12-03T15:47:53.662Z,101087.00
2022-12-03T15:50:43.313Z,101088.60
2022-12-03T15:53:17.740Z,101090.20
2022-12-03T15:56:12.183Z,101096.60
2022-12-03T15:58:47.714Z,101095.20
2022-12-03T16:01:36.308Z,101097.40
2022-12-03T16:04:11.122Z,101098.00
2022-12-03T16:06:51.014Z,101092.20
2022-12-03T16:09:27.572Z,101098.40
2022-12-03T16:12:08.786Z,101092.80
2022-12-03T16:14:43.801Z,101098.20
2022-12-03T16:17:18.733Z,101092.80
2022-12-03T16:20:30.504Z,101098.60
2022-12-03T16:23:32.551Z,101092.00
2022-12-03T16:26:09.797Z,101082.40
2022-12-03T16:28:44.094Z,101078.60
2022-12-03T16:31:19.363Z,101079.60
2022-12-03T16:33:55.742Z,101078.00
2022-12-03T16:36:30.332Z,101074.60
2022-12-03T16:39:40.395Z,101075.60
2022-12-03T16:42:33.749Z,101078.40
2022-12-03T16:45:51.382Z,101073.60
2022-12-03T16:48:26.142Z,101071.40
2022-12-03T16:51:04.119Z,101076.60
2022-12-03T16:53:42.541Z,101075.20
2022-12-03T16:57:30.369Z,101071.00
2022-12-03T17:00:11.144Z,101066.20
2022-12-03T17:02:45.733Z,101064.20
2022-12-03T17:05:20.609Z,101070.60
2022-12-03T17:07:55.174Z,101075.20
2022-12-03T17:10:30.044Z,101065.80
2022-12-03T17:13:11.509Z,101068.20
2022-12-03T17:15:46.365Z,101065.80
2022-12-03T17:18:21.000Z,101063.60
2022-12-03T17:20:55.689Z,101066.40
2022-12-03T17:23:30.315Z,101064.00
2022-12-03T17:26:04.871Z,101056.60
2022-12-03T17:28:39.350Z,101056.40
2022-12-03T17:31:13.982Z,101048.00
2022-12-03T17:33:48.482Z,101054.60
2022-12-03T17:36:22.930Z,101050.40
2022-12-03T17:38:57.245Z,101049.80
2022-12-03T17:41:31.814Z,101051.80
2022-12-03T17:44:09.911Z,101044.20
2022-12-03T17:46:44.450Z,101044.00
2022-12-03T17:49:18.594Z,101041.00
2022-12-03T17:51:52.867Z,101036.20
2022-12-03T17:54:43.306Z,101043.20
2022-12-03T17:57:20.267Z,101045.40
2022-12-03T17:59:54.296Z,101041.00
2022-12-03T18:02:28.578Z,101037.40
2022-12-03T18:05:02.340Z,101030.40
2022-12-03T18:07:36.490Z,101034.40
2022-12-03T18:10:12.592Z,101030.80
2022-12-03T18:12:46.706Z,101028.40
2022-12-03T18:15:20.802Z,101025.80
2022-12-03T18:17:54.677Z,101032.20
2022-12-03T18:20:28.600Z,101020.80
2022-12-03T18:23:03.492Z,101020.80
2022-12-03T18:25:37.332Z,101021.00
2022-12-03T18:28:11.356Z,101028.80
2022-12-03T18:30:50.682Z,101024.80
2022-12-03T18:33:26.444Z,101030.40
2022-12-03T18:36:01.805Z,101027.80
2022-12-03T18:38:37.604Z,101024.60
2022-12-03T18:41:12.031Z,101022.60
2022-12-03T18:43:47.629Z,101020.60
2022-12-03T18:46:52.007Z,101019.00
2022-12-03T18:49:17.326Z,101015.40
2022-12-03T18:51:57.347Z,101020.20
2022-12-03T18:54:33.084Z,101013.00
2022-12-03T18:57:07.308Z,101013.60
2022-12-03T18:59:44.031Z,101011.20
2022-12-03T19:05:16.741Z,101021.20
2022-12-03T19:07:51.580Z,101019.20
2022-12-03T19:10:25.772Z,101018.20
2022-12-03T19:12:59.991Z,101020.20
2022-12-03T19:15:36.425Z,101022.20
2022-12-03T19:18:10.710Z,101022.20
2022-12-03T19:20:46.279Z,101020.60
2022-12-03T19:23:20.051Z,101020.20
2022-12-03T19:26:02.979Z,101022.20
2022-12-03T19:28:37.943Z,101017.40
2022-12-03T19:31:15.218Z,101024.40
2022-12-03T19:33:49.346Z,101013.40
2022-12-03T19:36:31.110Z,101021.20
2022-12-03T19:39:05.191Z,101021.40
2022-12-03T19:41:39.358Z,101019.80
2022-12-03T19:44:17.591Z,101021.00
2022-12-03T19:46:54.229Z,101023.40
2022-12-03T19:49:29.178Z,101028.60
2022-12-03T19:52:03.281Z,101023.60
2022-12-03T19:54:37.180Z,101022.00
2022-12-03T19:57:10.988Z,101022.80
2022-12-03T19:59:44.657Z,101019.40
2022-12-03T20:02:18.610Z,101024.40
2022-12-03T20:04:52.909Z,101014.40
2022-12-03T20:07:27.176Z,101015.80
2022-12-03T20:10:01.211Z,101021.20
2022-12-03T20:12:35.709Z,101019.80
2022-12-03T20:15:12.132Z,101019.40
2022-12-03T20:17:46.068Z,101020.80
2022-12-03T20:20:20.647Z,101026.00
2022-12-03T20:22:54.970Z,101028.40
2022-12-03T20:25:29.363Z,101029.60
2022-12-03T20:28:03.231Z,101028.20
2022-12-03T20:30:37.586Z,101028.40
2022-12-03T20:33:12.080Z,101028.60
2022-12-03T20:35:46.153Z,101028.80
2022-12-03T20:38:20.139Z,101023.20
2022-12-03T20:40:53.966Z,101027.80
2022-12-03T20:43:27.668Z,101028.00
2022-12-03T20:46:09.547Z,101026.40
2022-12-03T20:48:45.353Z,101029.00
2022-12-03T20:51:22.771Z,101024.40
2022-12-03T20:53:57.962Z,101018.00
2022-12-03T20:56:39.475Z,101017.20
2022-12-03T20:59:17.293Z,101008.40
2022-12-03T21:01:51.758Z,100997.60
2022-12-03T21:04:25.577Z,100996.80
2022-12-03T21:07:00.297Z,100988.80
2022-12-03T21:09:34.705Z,100990.60
2022-12-03T21:12:09.748Z,100992.80
2022-12-03T21:14:43.824Z,100990.00
2022-12-03T21:17:17.748Z,100989.00
2022-12-03T21:19:52.235Z,100992.60
2022-12-03T21:22:26.694Z,100993.60
2022-12-03T21:25:00.604Z,100993.20
2022-12-03T21:27:34.871Z,100992.80
2022-12-03T21:30:11.453Z,101005.60
2022-12-03T21:32:45.386Z,101003.80
2022-12-03T21:35:20.115Z,100996.80
2022-12-03T21:37:54.570Z,100995.40
2022-12-03T21:40:28.754Z,100998.00
2022-12-03T21:43:02.858Z,100997.20
2022-12-03T21:45:36.929Z,101000.20
2022-12-03T21:48:11.964Z,101000.60
2022-12-03T21:50:46.177Z,101000.20
2022-12-03T21:53:20.608Z,101007.60
2022-12-03T21:55:54.682Z,101009.00
2022-12-03T21:58:29.537Z,101014.20
2022-12-03T22:01:10.962Z,101011.20
2022-12-03T22:03:45.815Z,101012.80
2022-12-03T22:06:21.125Z,101020.00
2022-12-03T22:08:55.257Z,101020.00
2022-12-03T22:11:29.416Z,101010.40
2022-12-03T22:14:04.960Z,101006.80
2022-12-03T22:16:39.351Z,101012.80
2022-12-03T22:19:14.002Z,101007.60
2022-12-03T22:21:48.351Z,101006.40
2022-12-03T22:24:23.913Z,101003.40
2022-12-03T22:26:57.829Z,100996.40
2022-12-03T22:29:59.403Z,100995.40
2022-12-03T22:32:33.514Z,101003.20
2022-12-03T22:35:09.479Z,100993.60
2022-12-03T22:37:43.372Z,100992.40
2022-12-03T22:40:18.580Z,100986.80
2022-12-03T22:42:52.877Z,100991.60
2022-12-03T22:45:26.770Z,100990.20
2022-12-03T22:48:00.639Z,100984.80
2022-12-03T22:50:34.553Z,100975.80
2022-12-03T22:53:08.559Z,100981.00
2022-12-03T22:55:42.856Z,100975.00
2022-12-03T22:58:16.673Z,100962.00
2022-12-03T23:00:50.626Z,100966.20
2022-12-03T23:03:24.867Z,100972.00
2022-12-03T23:05:58.919Z,100958.00
2022-12-03T23:08:33.352Z,100962.20
2022-12-03T23:11:07.636Z,100955.80
2022-12-03T23:13:41.927Z,100967.00
2022-12-03T23:16:19.691Z,100968.40
2022-12-03T23:18:54.088Z,100955.20
2022-12-03T23:21:31.071Z,100957.40
2022-12-03T23:24:07.947Z,100960.20
2022-12-03T23:26:42.308Z,100957.40
2022-12-03T23:29:16.222Z,100948.20
2022-12-03T23:31:50.299Z,100939.80
2022-12-03T23:34:24.092Z,100945.60
2022-12-03T23:36:58.285Z,100946.00
2022-12-03T23:39:32.624Z,100950.80
2022-12-03T23:42:07.053Z,100951.40
2022-12-03T23:44:41.174Z,100954.60
2022-12-03T23:47:15.215Z,100951.40
2022-12-03T23:49:49.723Z,100944.20
2022-12-03T23:52:24.579Z,100930.40
2022-12-03T23:54:58.666Z,100935.80
2022-12-03T23:57:32.572Z,100927.40
